^^

Nearby METAR Reports

 

EGNV - Tees-Side, United Kingdom
Distance from station: SW 7mi, 11km
Updated: 24/07/2017 15:20
Mostly cloudy
Mostly cloudy
 Wind from N
Wind: N 17 mph , 28 km/h
Temperature: 15°C
Dew Point: 11°C
Humidity: 77%
Barometer: 1017 hPa
Clouds: Mostly cloudy
Visibility: 5 miles , 8 km
Cloud details: Mostly cloudy 457 m
2017/07/24 14:20 EGNV 241420Z 35015KT 8000 BKN015 15/11 Q1017
EGXE - Leeming Raf, United Kingdom
Distance from station: SSW 23mi, 37km
Updated: 24/07/2017 14:50
Mostly cloudy
Mostly cloudy
 Wind from N
Wind: N 16 mph , 26 km/h
Temperature: 15°C
Dew Point: 11°C
Humidity: 77%
Barometer: 1017 hPa
Clouds: Mostly cloudy
Visibility: 6 miles , 10 km
Cloud details: Mostly cloudy 579 m
2017/07/24 13:50 EGXE 241350Z 35014KT 9999 BKN019 15/11 Q1017 WHT NOSIG
 
EGXZ - Topcliffe Raf, United Kingdom
Distance from station: S 27mi, 43km
Updated: 24/07/2017 14:50
Overcast
Overcast
 Wind from N
Wind: N 14 mph , 22 km/h
Temperature: 15°C
Dew Point: 12°C
Humidity: 82%
Barometer: 1017 hPa
Clouds: Overcast
Visibility: 6 miles , 10 km
Cloud details: Overcast 518 m
2017/07/24 13:50 EGXZ 241350Z AUTO 35012KT 9999 OVC017/// 15/12 Q1017
EGXD - Dishforth Raf, United Kingdom
Distance from station: S 32mi, 51km
Updated: 06/06/2016 10:50
NOT Current
Clear
Clear
 Wind from SSE
Wind: SSE 5 mph , 7 km/h
Temperature: 18°C
Dew Point: 11°C
Humidity: 64%
Barometer: 1023 hPa
Clouds: Clear
Visibility: 6 miles , 10 km
2016/06/06 09:50 EGXD 060950Z AUTO 16004KT 9999 // NCD 18/11 Q1023
 
EGNT - Newcastle, United Kingdom
Distance from station: NNW 34mi, 54km
Updated: 24/07/2017 15:20
Mostly cloudy
Mostly cloudy
 Wind from N
Wind: N 10 mph , 17 km/h
Temperature: 15°C
Dew Point: 11°C
Humidity: 77%
Barometer: 1017 hPa
Clouds: Mostly cloudy
Visibility: 6 miles , 10 km
Cloud details: Mostly cloudy 549 m
2017/07/24 14:20 EGNT 241420Z 36009KT 330V040 9999 BKN018 15/11 Q1017
EGXU - Linton-On-Ouse R, United Kingdom
Distance from station: S 37mi, 60km
Updated: 24/07/2017 14:50
Mostly cloudy
Mostly cloudy
 Wind from NNW
Wind: NNW 16 mph , 26 km/h
Temperature: 16°C
Dew Point: 12°C
Humidity: 77%
Barometer: 1016 hPa
Clouds: Mostly cloudy
Visibility: 6 miles , 10 km
Cloud details: Mostly cloudy 457 m
Mostly cloudy 1067 m
2017/07/24 13:50 EGXU 241350Z 34014KT 9999 BKN015 BKN035 16/12 Q1016 WHT TEMPO 35015G25KT WHT
 
EGNM - Leeds And Bradfo, United Kingdom
Distance from station: SSW 52mi, 83km
Updated: 24/07/2017 15:20
Partly cloudy
Partly cloudy
 Wind from NNE
Wind: NNE 12 mph , 19 km/h
Temperature: 16°C
Dew Point: 12°C
Humidity: 77%
Barometer: 1016 hPa
Clouds: Partly cloudy
Visibility: 6 miles , 10 km
Cloud details: Few Clouds 488 m
Partly cloudy 671 m
2017/07/24 14:20 EGNM 241420Z 02010KT 350V050 9999 FEW016 SCT022 16/12 Q1016
EGXG - Church Fenton Ra, United Kingdom
Distance from station: S 52mi, 84km
Updated: 19/12/2013 08:50
NOT Current
Clear
Clear
 Wind from SW
Wind: SW 16 mph , 26 km/h
Temperature: 4°C
Wind Chill: -1°C
Dew Point: -1°C
Humidity: 70%
Barometer: 996 hPa
Clouds: Clear
Visibility: 6 miles , 10 km
2013/12/19 08:50 EGXG 190850Z AUTO 23014KT 9999 NCD 04/M01 Q0996
 
EGOM - Spadeadam, United Kingdom
Distance from station: WNW 58mi, 94km
Updated: 24/07/2017 14:50
Mostly cloudy
Mostly cloudy
 Wind from NNE
Wind: NNE 12 mph , 19 km/h
Temperature: 15°C
Dew Point: 11°C
Humidity: 77%
Barometer: 1017 hPa
Clouds: Mostly cloudy
Visibility: 6 miles , 10 km
Cloud details: Mostly cloudy 610 m
2017/07/24 13:50 EGOM 241350Z AUTO 02010KT 9999 BKN020/// 15/11 Q1017
EGNC - Carlisle, United Kingdom
Distance from station: WNW 65mi, 105km
Updated: 24/07/2017 15:20
Partly cloudy
Partly cloudy
 Wind from E
Wind: E 9 mph , 15 km/h
Temperature: 19°C
Dew Point: 13°C
Humidity: 68%
Barometer: 1017 hPa
Clouds: Partly cloudy
Visibility: 6 miles , 10 km
Cloud details: Few Clouds 610 m
Partly cloudy 792 m
2017/07/24 14:20 EGNC 241420Z 08008KT 030V120 9999 FEW020 SCT026 19/13 Q1017
 
EGCN - Doncaster Sheffi, United Kingdom
Distance from station: S 77mi, 124km
Updated: 24/07/2017 15:20
Mostly cloudy
Mostly cloudy
 Wind from NNW
Wind: NNW 16 mph , 26 km/h
Temperature: 16°C
Dew Point: 12°C
Humidity: 77%
Barometer: 1017 hPa
Clouds: Mostly cloudy
Visibility: 6 miles , 10 km
Cloud details: Mostly cloudy 549 m
2017/07/24 14:20 EGCN 241420Z 34014KT 9999 BKN018 16/12 Q1017
EGNJ - Humberside, United Kingdom
Distance from station: SSE 80mi, 129km
Updated: 24/07/2017 15:20
Overcast
Overcast
 Wind from NW
Wind: NW 15 mph , 24 km/h
Temperature: 15°C
Dew Point: 13°C
Humidity: 88%
Barometer: 1015 hPa
Clouds: Overcast
Visibility: 6 miles , 10 km
Cloud details: Partly cloudy 335 m
Overcast 427 m
2017/07/24 14:20 EGNJ 241420Z 32013KT 9999 SCT011 OVC014 15/13 Q1015
 
EGNH - Blackpool Airpor, United Kingdom
Distance from station: SW 90mi, 145km
Updated: 24/07/2017 15:20
Few Clouds
Few Clouds
 Wind from WNW
Wind: WNW 13 mph , 20 km/h
Temperature: 19°C
Dew Point: 15°C
Humidity: 78%
Barometer: 1017 hPa
Clouds: Few Clouds
Visibility: 6 miles , 10 km
Cloud details: Few Clouds 457 m
2017/07/24 14:20 EGNH 241420Z 30011KT 9999 FEW015 19/15 Q1017
EGXP - Scampton Raf, United Kingdom
Distance from station: SSE 94mi, 151km
Updated: 24/07/2017 14:50
Overcast
Overcast
 Wind from NW
Wind: NW 17 mph , 28 km/h
Temperature: 13°C
Dew Point: 12°C
Humidity: 94%
Barometer: 1015 hPa
Clouds: Overcast
Visibility: 4 miles , 6 km
Cloud details: Overcast 274 m
2017/07/24 13:50 EGXP 241350Z AUTO 32015KT 6000 // OVC009/// 13/12 Q1015
 
EGCC - Manchester Intl, United Kingdom
Distance from station: SSW 94mi, 152km
Updated: 24/07/2017 15:20
Mostly cloudy
Mostly cloudy
 Wind from N
Wind: N 13 mph , 20 km/h
Temperature: 20°C
Dew Point: 13°C
Humidity: 64%
Barometer: 1017 hPa
Clouds: Mostly cloudy
Visibility: 6 miles , 10 km
Cloud details: Partly cloudy 884 m
Mostly cloudy 1006 m
2017/07/24 14:20 EGCC 241420Z AUTO 36011KT 9999 SCT029 BKN033 20/13 Q1017 NOSIG
EGOW - Woodvale Raf, United Kingdom
Distance from station: SW 100mi, 160km
Updated: 24/07/2017 14:50
Partly cloudy
Partly cloudy
 Wind from NW
Wind: NW 13 mph , 20 km/h
Temperature: 19°C
Dew Point: 13°C
Humidity: 68%
Barometer: 1017 hPa
Clouds: Partly cloudy
Visibility: 6 miles , 10 km
Cloud details: Few Clouds 488 m
Partly cloudy 610 m
2017/07/24 13:50 EGOW 241350Z 31011KT 9999 FEW016 SCT020 19/13 Q1017 WHT